createdAt,value
2023-05-24T00:00:33.926Z,99739.61
2023-05-24T00:03:02.302Z,99736.50
2023-05-24T00:05:30.668Z,99737.94
2023-05-24T00:07:58.731Z,99740.45
2023-05-24T00:10:25.903Z,99748.29
2023-05-24T00:12:53.361Z,99752.08
2023-05-24T00:15:20.446Z,99754.38
2023-05-24T00:17:47.566Z,99752.32
2023-05-24T00:20:14.919Z,99748.64
2023-05-24T00:22:47.117Z,99750.89
2023-05-24T00:25:14.052Z,99752.18
2023-05-24T00:27:41.298Z,99748.80
2023-05-24T00:30:08.467Z,99747.14
2023-05-24T00:32:37.391Z,99742.52
2023-05-24T00:35:05.595Z,99750.21
2023-05-24T00:37:36.869Z,99753.02
2023-05-24T00:40:04.434Z,99749.48
2023-05-24T00:42:32.038Z,99745.40
2023-05-24T00:44:59.183Z,99746.05
2023-05-24T00:47:31.281Z,99742.89
2023-05-24T00:49:58.609Z,99748.61
2023-05-24T00:52:26.223Z,99750.57
2023-05-24T00:54:53.208Z,99756.15
2023-05-24T00:57:21.182Z,99754.45
2023-05-24T00:59:49.542Z,99756.71
2023-05-24T01:02:17.847Z,99754.05
2023-05-24T01:04:53.506Z,99752.08
2023-05-24T01:07:26.271Z,99754.11
2023-05-24T01:10:21.974Z,99755.38
2023-05-24T01:13:06.029Z,99756.70
2023-05-24T01:15:56.982Z,99757.09
2023-05-24T01:18:29.616Z,99758.30
2023-05-24T01:21:38.330Z,99756.36
2023-05-24T01:24:29.789Z,99753.06
2023-05-24T01:27:09.022Z,99748.65
2023-05-24T01:29:36.886Z,99750.67
2023-05-24T01:32:04.527Z,99752.83
2023-05-24T01:34:33.105Z,99747.69
2023-05-24T01:37:00.257Z,99748.66
2023-05-24T01:39:28.433Z,99744.53
2023-05-24T01:42:14.341Z,99743.49
2023-05-24T01:45:03.838Z,99743.20
2023-05-24T01:47:41.854Z,99741.16
2023-05-24T01:50:45.106Z,99739.54
2023-05-24T01:53:13.127Z,99732.73
2023-05-24T01:55:40.312Z,99729.84
2023-05-24T01:58:07.222Z,99734.59
2023-05-24T02:00:34.302Z,99737.81
2023-05-24T02:03:04.411Z,99742.95
2023-05-24T02:05:32.662Z,99744.64
2023-05-24T02:08:04.856Z,99746.42
2023-05-24T02:10:32.045Z,99742.17
2023-05-24T02:12:59.015Z,99742.16
2023-05-24T02:15:30.008Z,99738.91
2023-05-24T02:17:58.644Z,99738.92
2023-05-24T02:20:30.929Z,99735.59
2023-05-24T02:22:58.276Z,99740.59
2023-05-24T02:25:26.336Z,99737.83
2023-05-24T02:27:53.603Z,99741.84
2023-05-24T02:30:20.801Z,99750.77
2023-05-24T02:32:47.708Z,99749.45
2023-05-24T02:35:14.728Z,99755.88
2023-05-24T02:37:42.035Z,99760.10
2023-05-24T02:40:09.293Z,99765.98
2023-05-24T02:42:36.465Z,99771.48
2023-05-24T02:45:04.318Z,99775.20
2023-05-24T02:47:31.281Z,99773.91
2023-05-24T02:50:03.515Z,99774.98
2023-05-24T02:52:31.385Z,99776.71
2023-05-24T02:54:58.448Z,99780.59
2023-05-24T02:57:25.301Z,99787.80
2023-05-24T02:59:52.648Z,99787.32
2023-05-24T03:02:21.526Z,99786.50
2023-05-24T03:04:48.460Z,99787.58
2023-05-24T03:07:15.550Z,99790.16
2023-05-24T03:09:42.767Z,99790.91
2023-05-24T03:12:12.573Z,99792.45
2023-05-24T03:14:39.912Z,99795.27
2023-05-24T03:17:06.753Z,99794.58
2023-05-24T03:19:34.327Z,99793.95
2023-05-24T03:22:01.387Z,99796.63
2023-05-24T03:24:28.462Z,99796.52
2023-05-24T03:26:55.402Z,99794.36
2023-05-24T03:29:22.499Z,99791.98
2023-05-24T03:31:50.426Z,99793.86
2023-05-24T03:34:17.244Z,99794.10
2023-05-24T03:36:44.173Z,99795.11
2023-05-24T03:39:11.116Z,99792.71
2023-05-24T03:41:50.874Z,99790.05
2023-05-24T03:44:17.764Z,99794.95
2023-05-24T03:46:44.544Z,99792.67
2023-05-24T03:49:16.824Z,99795.98
2023-05-24T03:51:44.011Z,99794.31
2023-05-24T03:54:10.712Z,99793.23
2023-05-24T03:56:38.187Z,99788.06
2023-05-24T03:59:05.136Z,99784.25
2023-05-24T04:01:34.587Z,99776.56
2023-05-24T04:04:03.383Z,99774.50
2023-05-24T04:06:31.022Z,99773.18
2023-05-24T04:08:59.166Z,99773.51
2023-05-24T04:11:29.353Z,99781.27
2023-05-24T04:13:57.283Z,99783.48
2023-05-24T04:16:25.577Z,99790.37
2023-05-24T04:18:57.631Z,99794.15
2023-05-24T04:21:25.076Z,99795.12
2023-05-24T04:23:53.748Z,99798.42
2023-05-24T04:26:21.519Z,99799.03
2023-05-24T04:28:48.498Z,99804.86
2023-05-24T04:31:16.147Z,99804.04
2023-05-24T04:33:43.072Z,99798.36
2023-05-24T04:36:11.038Z,99795.92
2023-05-24T04:38:39.081Z,99794.03
2023-05-24T04:41:06.262Z,99798.09
2023-05-24T04:43:34.443Z,99800.42
2023-05-24T04:46:01.300Z,99797.17
2023-05-24T04:48:28.160Z,99798.08
2023-05-24T04:50:55.583Z,99797.89
2023-05-24T04:53:22.753Z,99796.29
2023-05-24T04:55:50.176Z,99797.06
2023-05-24T04:58:17.525Z,99801.67
2023-05-24T05:00:44.861Z,99797.45
2023-05-24T05:03:11.950Z,99797.63
2023-05-24T05:05:38.976Z,99796.92
2023-05-24T05:08:06.313Z,99799.99
2023-05-24T05:10:33.415Z,99802.39
2023-05-24T05:13:00.240Z,99805.81
2023-05-24T05:15:27.184Z,99809.59
2023-05-24T05:17:54.015Z,99812.35
2023-05-24T05:20:21.926Z,99811.65
2023-05-24T05:22:49.394Z,99809.68
2023-05-24T05:25:16.689Z,99806.98
2023-05-24T05:27:43.805Z,99809.02
2023-05-24T05:30:12.165Z,99808.67
2023-05-24T05:32:40.284Z,99812.48
2023-05-24T05:35:08.119Z,99818.09
2023-05-24T05:37:35.180Z,99824.83
2023-05-24T05:40:03.546Z,99828.20
2023-05-24T05:42:31.477Z,99821.73
2023-05-24T05:44:58.343Z,99820.27
2023-05-24T05:47:26.178Z,99818.33
2023-05-24T05:49:52.933Z,99819.09
2023-05-24T05:52:20.218Z,99821.38
2023-05-24T05:54:47.239Z,99818.13
2023-05-24T05:57:15.765Z,99822.05
2023-05-24T05:59:42.443Z,99823.39
2023-05-24T06:02:09.460Z,99828.64
2023-05-24T06:04:36.528Z,99825.15
2023-05-24T06:07:03.430Z,99824.55
2023-05-24T06:09:30.430Z,99823.32
2023-05-24T06:11:57.233Z,99827.55
2023-05-24T06:14:24.595Z,99831.42
2023-05-24T06:16:51.882Z,99830.02
2023-05-24T06:19:18.584Z,99836.10
2023-05-24T06:21:47.496Z,99838.63
2023-05-24T06:24:15.161Z,99840.05
2023-05-24T06:26:42.459Z,99841.45
2023-05-24T06:29:09.382Z,99845.11
2023-05-24T06:31:36.389Z,99846.00
2023-05-24T06:34:04.573Z,99853.63
2023-05-24T06:36:34.961Z,99850.73
2023-05-24T06:39:02.856Z,99850.70
2023-05-24T06:41:29.786Z,99846.05
2023-05-24T06:43:56.688Z,99841.75
2023-05-24T06:46:23.525Z,99840.60
2023-05-24T06:48:50.537Z,99845.25
2023-05-24T06:51:17.662Z,99850.22
2023-05-24T06:53:44.417Z,99851.11
2023-05-24T06:56:11.278Z,99852.94
2023-05-24T06:58:38.169Z,99850.70
2023-05-24T07:01:05.474Z,99851.95
2023-05-24T07:03:33.171Z,99849.80
2023-05-24T07:05:59.936Z,99851.82
2023-05-24T07:08:26.923Z,99847.91
2023-05-24T07:10:54.178Z,99847.96
2023-05-24T07:13:21.478Z,99843.39
2023-05-24T07:15:49.004Z,99848.92
2023-05-24T07:18:16.023Z,99846.36
2023-05-24T07:20:43.141Z,99846.59
2023-05-24T07:23:10.370Z,99845.54
2023-05-24T07:25:37.019Z,99845.29
2023-05-24T07:28:04.268Z,99835.48
2023-05-24T07:30:32.542Z,99834.06
2023-05-24T07:33:01.679Z,99829.14
2023-05-24T07:35:28.826Z,99833.50
2023-05-24T07:37:56.471Z,99830.84
2023-05-24T07:40:23.754Z,99832.39
2023-05-24T07:42:50.954Z,99832.94
2023-05-24T07:45:17.805Z,99831.04
2023-05-24T07:47:47.159Z,99836.91
2023-05-24T07:50:14.538Z,99831.81
2023-05-24T07:52:41.418Z,99836.77
2023-05-24T07:55:08.499Z,99834.92
2023-05-24T07:57:36.637Z,99831.35
2023-05-24T08:00:10.079Z,99825.48
2023-05-24T08:02:38.667Z,99828.09
2023-05-24T08:05:06.365Z,99827.71
2023-05-24T08:07:34.219Z,99825.08
2023-05-24T08:10:01.186Z,99828.91
2023-05-24T08:12:29.804Z,99830.02
2023-05-24T08:15:01.960Z,99826.08
2023-05-24T08:17:31.238Z,99824.49
2023-05-24T08:19:58.516Z,99822.89
2023-05-24T08:22:25.455Z,99819.30
2023-05-24T08:24:52.734Z,99816.40
2023-05-24T08:27:19.747Z,99816.77
2023-05-24T08:29:46.668Z,99813.55
2023-05-24T08:32:14.048Z,99812.95
2023-05-24T08:34:41.030Z,99812.05
2023-05-24T08:37:08.991Z,99814.52
2023-05-24T08:39:36.042Z,99812.33
2023-05-24T08:44:41.245Z,99821.72
2023-05-24T08:47:08.296Z,99815.58
2023-05-24T08:49:36.908Z,99815.69
2023-05-24T08:52:06.897Z,99811.38
2023-05-24T08:54:36.891Z,99811.20
2023-05-24T08:57:04.018Z,99806.52
2023-05-24T08:59:32.131Z,99808.08
2023-05-24T09:01:59.169Z,99799.73
2023-05-24T09:04:27.567Z,99804.32
2023-05-24T09:06:55.040Z,99805.61
2023-05-24T09:09:21.796Z,99806.04
2023-05-24T09:11:49.364Z,99802.55
2023-05-24T09:14:16.366Z,99804.68
2023-05-24T09:16:43.939Z,99808.41
2023-05-24T09:19:11.331Z,99808.84
2023-05-24T09:21:38.212Z,99809.45
2023-05-24T09:24:08.317Z,99813.02
2023-05-24T09:26:38.336Z,99816.59
2023-05-24T09:29:08.836Z,99812.17
2023-05-24T09:31:38.423Z,99811.86
2023-05-24T09:34:09.623Z,99812.75
2023-05-24T09:36:37.875Z,99810.17
2023-05-24T09:39:09.020Z,99810.72
2023-05-24T09:41:36.929Z,99807.19
2023-05-24T09:44:04.265Z,99805.04
2023-05-24T09:46:37.780Z,99807.29
2023-05-24T09:49:07.402Z,99806.02
2023-05-24T09:51:38.582Z,99807.73
2023-05-24T09:54:05.991Z,99812.30
2023-05-24T09:56:34.193Z,99815.70
2023-05-24T09:59:08.474Z,99816.66
2023-05-24T10:01:35.598Z,99823.36
2023-05-24T10:04:08.880Z,99824.93
2023-05-24T10:06:38.199Z,99821.98
2023-05-24T10:09:09.219Z,99825.09
2023-05-24T10:11:36.802Z,99831.69
2023-05-24T10:14:05.173Z,99839.77
2023-05-24T10:16:33.041Z,99849.06
2023-05-24T10:18:59.764Z,99853.68
2023-05-24T10:21:26.899Z,99860.45
2023-05-24T10:23:59.311Z,99865.63
2023-05-24T10:26:26.582Z,99869.64
2023-05-24T10:29:03.268Z,99872.16
2023-05-24T10:31:35.808Z,99877.54
2023-05-24T10:34:07.826Z,99874.64
2023-05-24T10:36:37.291Z,99878.28
2023-05-24T10:39:11.486Z,99884.48
2023-05-24T10:41:42.801Z,99886.38
2023-05-24T10:44:11.836Z,99884.30
2023-05-24T10:47:08.285Z,99881.09
2023-05-24T10:49:36.735Z,99883.84
2023-05-24T10:52:08.124Z,99879.30
2023-05-24T10:54:39.713Z,99874.09
2023-05-24T10:57:08.282Z,99873.50
2023-05-24T10:59:38.393Z,99864.69
2023-05-24T11:02:12.869Z,99861.64
2023-05-24T11:04:42.890Z,99856.87
2023-05-24T11:07:10.164Z,99853.90
2023-05-24T11:09:39.599Z,99849.75
2023-05-24T11:12:07.921Z,99849.18
2023-05-24T11:14:39.080Z,99849.09
2023-05-24T11:17:06.965Z,99845.33
2023-05-24T11:20:00.236Z,99842.71
2023-05-24T11:22:27.955Z,99846.19
2023-05-24T11:24:56.922Z,99844.17
2023-05-24T11:27:23.792Z,99842.58
2023-05-24T11:29:51.533Z,99842.25
2023-05-24T11:32:19.994Z,99841.23
2023-05-24T11:34:47.542Z,99839.70
2023-05-24T11:37:16.886Z,99833.48
2023-05-24T11:39:49.374Z,99831.27
2023-05-24T11:42:16.384Z,99830.53
2023-05-24T11:44:43.566Z,99824.98
2023-05-24T11:47:11.560Z,99827.77
2023-05-24T11:49:38.385Z,99829.40
2023-05-24T11:52:06.933Z,99818.49
2023-05-24T11:54:36.812Z,99821.16
2023-05-24T11:57:05.017Z,99819.87
2023-05-24T11:59:32.591Z,99814.43
2023-05-24T12:02:07.516Z,99812.26
2023-05-24T12:04:35.160Z,99814.36
2023-05-24T12:07:02.823Z,99812.33
2023-05-24T12:09:34.926Z,99817.56
2023-05-24T12:12:01.873Z,99818.28
2023-05-24T12:14:32.706Z,99816.05
2023-05-24T12:17:00.802Z,99815.12
2023-05-24T12:19:34.222Z,99812.38
2023-05-24T12:22:08.670Z,99808.95
2023-05-24T12:24:37.291Z,99810.51
2023-05-24T12:27:08.662Z,99809.59
2023-05-24T12:29:43.284Z,99806.39
2023-05-24T12:32:14.768Z,99800.65
2023-05-24T12:34:43.483Z,99801.73
2023-05-24T12:37:11.710Z,99797.54
2023-05-24T12:39:39.296Z,99804.89
2023-05-24T12:42:07.522Z,99803.43
2023-05-24T12:44:35.372Z,99801.13
2023-05-24T12:47:03.454Z,99794.48
2023-05-24T12:49:31.082Z,99792.70
2023-05-24T12:51:58.084Z,99789.91
2023-05-24T12:54:27.280Z,99787.24
2023-05-24T12:56:56.774Z,99785.33
2023-05-24T12:59:26.758Z,99783.05
2023-05-24T13:01:54.037Z,99781.85
2023-05-24T13:04:22.481Z,99784.36
2023-05-24T13:06:49.714Z,99782.38
2023-05-24T13:09:18.638Z,99782.36
2023-05-24T13:11:46.100Z,99780.74
2023-05-24T13:14:13.065Z,99783.23
2023-05-24T13:16:40.007Z,99782.06
2023-05-24T13:19:07.552Z,99783.52
2023-05-24T13:21:35.076Z,99787.11
2023-05-24T13:24:01.922Z,99790.55
2023-05-24T13:26:30.239Z,99791.05
2023-05-24T13:31:27.183Z,99794.40
2023-05-24T13:33:54.367Z,99791.98
2023-05-24T13:36:21.280Z,99790.30
2023-05-24T13:38:52.301Z,99786.95
2023-05-24T13:41:24.659Z,99786.54
2023-05-24T13:43:54.909Z,99791.22
2023-05-24T13:46:22.580Z,99790.53
2023-05-24T13:48:49.657Z,99792.42
2023-05-24T13:51:18.437Z,99797.21
2023-05-24T13:53:47.287Z,99800.35
2023-05-24T13:56:15.344Z,99804.56
2023-05-24T13:58:42.351Z,99801.13
2023-05-24T14:01:09.599Z,99805.80
2023-05-24T14:03:36.670Z,99806.40
2023-05-24T14:06:05.989Z,99808.31
2023-05-24T14:08:33.384Z,99811.25
2023-05-24T14:11:00.689Z,99807.13
2023-05-24T14:15:57.904Z,99806.02
2023-05-24T14:18:24.776Z,99810.40
2023-05-24T14:20:56.935Z,99814.86
2023-05-24T14:23:24.039Z,99816.91
2023-05-24T14:25:51.706Z,99815.06
2023-05-24T14:28:19.279Z,99811.39
2023-05-24T14:30:46.365Z,99806.21
2023-05-24T14:33:13.692Z,99802.82
2023-05-24T14:35:40.789Z,99799.50
2023-05-24T14:38:09.225Z,99795.56
2023-05-24T14:40:38.569Z,99792.96
2023-05-24T14:43:06.310Z,99789.04
2023-05-24T14:45:33.520Z,99786.69
2023-05-24T14:48:02.136Z,99783.70
2023-05-24T14:50:29.289Z,99787.98
2023-05-24T14:52:56.303Z,99789.17
2023-05-24T14:55:23.138Z,99793.08
2023-05-24T14:57:51.309Z,99793.48
2023-05-24T15:00:22.290Z,99792.19
2023-05-24T15:02:50.396Z,99792.58
2023-05-24T15:05:17.563Z,99796.80
2023-05-24T15:07:44.415Z,99794.80
2023-05-24T15:10:11.719Z,99797.38
2023-05-24T15:12:39.389Z,99800.21
2023-05-24T15:15:08.516Z,99797.08
2023-05-24T15:17:36.780Z,99800.19
2023-05-24T15:20:03.882Z,99800.23
2023-05-24T15:22:32.921Z,99801.79
2023-05-24T15:24:59.770Z,99808.85
2023-05-24T15:27:27.458Z,99809.10
2023-05-24T15:29:58.469Z,99807.48
2023-05-24T15:32:25.747Z,99804.34
2023-05-24T15:34:52.661Z,99811.16
2023-05-24T15:37:21.708Z,99813.79
2023-05-24T15:39:49.707Z,99813.20
2023-05-24T15:42:22.500Z,99813.34
2023-05-24T15:44:49.670Z,99809.45
2023-05-24T15:47:16.482Z,99806.91
2023-05-24T15:49:44.997Z,99807.13
2023-05-24T15:52:12.075Z,99800.85
2023-05-24T15:54:39.273Z,99803.02
2023-05-24T15:57:07.281Z,99800.99
2023-05-24T15:59:36.322Z,99794.58
2023-05-24T16:02:07.612Z,99791.39
2023-05-24T16:04:35.196Z,99789.81
2023-05-24T16:07:02.318Z,99790.95
2023-05-24T16:09:29.722Z,99791.19
2023-05-24T16:11:56.840Z,99788.64
2023-05-24T16:14:23.929Z,99786.78
2023-05-24T16:16:50.891Z,99787.62
2023-05-24T16:19:17.911Z,99789.40
2023-05-24T16:21:45.489Z,99791.85
2023-05-24T16:24:12.410Z,99792.77
2023-05-24T16:26:40.109Z,99793.49
2023-05-24T16:29:09.756Z,99788.95
2023-05-24T16:31:36.735Z,99790.91
2023-05-24T16:34:03.844Z,99788.74
2023-05-24T16:36:31.900Z,99791.45
2023-05-24T16:38:59.053Z,99795.53
2023-05-24T16:41:28.974Z,99801.52
2023-05-24T16:43:56.446Z,99804.73
2023-05-24T16:46:24.023Z,99809.04
2023-05-24T16:48:51.457Z,99808.50
2023-05-24T16:51:19.780Z,99812.53
2023-05-24T16:53:46.914Z,99817.23
2023-05-24T16:56:13.833Z,99824.59
2023-05-24T16:58:40.905Z,99820.41
2023-05-24T17:01:09.569Z,99821.00
2023-05-24T17:03:37.393Z,99827.73
2023-05-24T17:06:04.761Z,99830.77
2023-05-24T17:08:35.400Z,99831.48
2023-05-24T17:11:06.555Z,99832.15
2023-05-24T17:13:33.780Z,99833.34
2023-05-24T17:16:02.366Z,99830.00
2023-05-24T17:18:29.660Z,99831.34
2023-05-24T17:20:57.036Z,99837.23
2023-05-24T17:23:31.328Z,99838.70
2023-05-24T17:25:58.182Z,99841.67
2023-05-24T17:28:27.136Z,99843.82
2023-05-24T17:30:55.480Z,99844.77
2023-05-24T17:33:23.774Z,99846.61
2023-05-24T17:35:51.112Z,99851.59
2023-05-24T17:38:18.418Z,99853.80
2023-05-24T17:40:46.110Z,99852.58
2023-05-24T17:43:13.067Z,99852.31
2023-05-24T17:45:40.695Z,99854.61
2023-05-24T17:48:08.391Z,99854.07
2023-05-24T17:50:35.671Z,99860.09
2023-05-24T17:53:02.819Z,99860.77
2023-05-24T17:55:30.051Z,99861.67
2023-05-24T17:57:57.305Z,99856.94
2023-05-24T18:00:24.238Z,99860.88
2023-05-24T18:02:51.092Z,99862.63
2023-05-24T18:05:18.063Z,99865.14
2023-05-24T18:07:50.812Z,99870.27
2023-05-24T18:10:18.777Z,99875.50
2023-05-24T18:12:47.493Z,99874.73
2023-05-24T18:15:14.715Z,99879.88
2023-05-24T18:17:41.865Z,99880.94
2023-05-24T18:20:09.627Z,99881.49
2023-05-24T18:22:42.007Z,99885.16
2023-05-24T18:25:09.348Z,99885.29
2023-05-24T18:27:36.611Z,99887.03
2023-05-24T18:30:04.632Z,99894.44
2023-05-24T18:32:32.659Z,99897.15
2023-05-24T18:35:00.309Z,99900.48
2023-05-24T18:37:27.776Z,99906.64
2023-05-24T18:39:55.653Z,99911.40
2023-05-24T18:42:22.488Z,99917.73
2023-05-24T18:44:54.388Z,99920.84
2023-05-24T18:47:21.250Z,99917.94
2023-05-24T18:49:48.780Z,99919.44
2023-05-24T18:52:15.726Z,99920.52
2023-05-24T18:54:42.599Z,99916.07
2023-05-24T18:57:14.452Z,99917.15
2023-05-24T18:59:41.712Z,99913.91
2023-05-24T19:02:13.815Z,99913.83
2023-05-24T19:04:41.215Z,99916.17
2023-05-24T19:07:08.766Z,99913.70
2023-05-24T19:09:36.475Z,99918.27
2023-05-24T19:12:04.250Z,99918.72
2023-05-24T19:14:31.894Z,99919.02
2023-05-24T19:17:00.013Z,99912.63
2023-05-24T19:19:32.953Z,99911.95
2023-05-24T19:22:00.371Z,99915.32
2023-05-24T19:24:27.515Z,99906.44
2023-05-24T19:26:54.725Z,99904.41
2023-05-24T19:29:27.912Z,99906.52
2023-05-24T19:31:55.021Z,99905.88
2023-05-24T19:34:22.076Z,99910.61
2023-05-24T19:36:49.350Z,99911.66
2023-05-24T19:39:21.416Z,99910.88
2023-05-24T19:41:48.444Z,99909.98
2023-05-24T19:44:15.553Z,99909.58
2023-05-24T19:46:42.649Z,99908.70
2023-05-24T19:49:09.574Z,99907.55
2023-05-24T19:51:37.892Z,99902.63
2023-05-24T19:54:05.134Z,99902.63
2023-05-24T19:56:32.845Z,99899.70
2023-05-24T19:58:59.949Z,99898.13
2023-05-24T20:01:27.684Z,99899.46
2023-05-24T20:03:54.917Z,99899.11
2023-05-24T20:06:22.601Z,99896.98
2023-05-24T20:08:49.806Z,99897.80
2023-05-24T20:11:17.331Z,99899.16
2023-05-24T20:13:45.060Z,99898.97
2023-05-24T20:16:12.296Z,99901.48
2023-05-24T20:18:39.284Z,99896.48
2023-05-24T20:21:06.205Z,99892.29
2023-05-24T20:23:33.669Z,99888.58
2023-05-24T20:26:01.444Z,99891.58
2023-05-24T20:28:31.448Z,99895.84
2023-05-24T20:31:04.700Z,99897.31
2023-05-24T20:33:37.639Z,99898.73
2023-05-24T20:36:06.135Z,99899.17
2023-05-24T20:38:33.476Z,99903.05
2023-05-24T20:41:02.905Z,99903.57
2023-05-24T20:43:29.956Z,99903.88
2023-05-24T20:45:56.818Z,99903.91
2023-05-24T20:48:25.020Z,99906.17
2023-05-24T20:50:51.881Z,99908.23
2023-05-24T20:53:18.882Z,99910.02
2023-05-24T20:55:45.789Z,99910.56
2023-05-24T20:58:14.684Z,99908.98
2023-05-24T21:00:41.852Z,99905.30
2023-05-24T21:03:09.438Z,99904.10
2023-05-24T21:05:37.632Z,99904.27
2023-05-24T21:08:04.381Z,99907.13
2023-05-24T21:10:38.691Z,99911.37
2023-05-24T21:13:10.883Z,99910.27
2023-05-24T21:15:38.799Z,99907.16
2023-05-24T21:18:05.984Z,99908.11
2023-05-24T21:20:33.131Z,99905.81
2023-05-24T21:23:00.272Z,99906.86
2023-05-24T21:25:32.166Z,99899.11
2023-05-24T21:27:59.306Z,99894.73
2023-05-24T21:30:25.955Z,99887.60
2023-05-24T21:32:53.695Z,99886.67
2023-05-24T21:35:20.684Z,99886.27
2023-05-24T21:37:47.919Z,99885.63
2023-05-24T21:40:19.989Z,99882.67
2023-05-24T21:42:46.654Z,99880.48
2023-05-24T21:45:14.106Z,99878.58
2023-05-24T21:47:42.447Z,99871.75
2023-05-24T21:50:09.620Z,99870.45
2023-05-24T21:52:36.912Z,99869.46
2023-05-24T21:55:04.427Z,99872.13
2023-05-24T21:57:32.915Z,99875.66
2023-05-24T21:59:59.772Z,99874.75
2023-05-24T22:02:26.658Z,99876.06
2023-05-24T22:04:53.596Z,99876.80
2023-05-24T22:07:20.557Z,99878.73
2023-05-24T22:09:47.462Z,99884.21
2023-05-24T22:12:14.393Z,99883.04
2023-05-24T22:14:41.015Z,99884.42
2023-05-24T22:17:09.024Z,99877.34
2023-05-24T22:19:39.964Z,99883.83
2023-05-24T22:22:08.323Z,99884.80
2023-05-24T22:24:35.541Z,99887.58
2023-05-24T22:27:03.956Z,99887.40
2023-05-24T22:29:30.886Z,99891.13
2023-05-24T22:31:57.854Z,99893.55
2023-05-24T22:34:26.284Z,99892.77
2023-05-24T22:36:53.066Z,99892.46
2023-05-24T22:39:20.136Z,99890.39
2023-05-24T22:41:46.888Z,99884.42
2023-05-24T22:44:13.978Z,99884.65
2023-05-24T22:46:40.990Z,99884.71
2023-05-24T22:49:07.816Z,99885.83
2023-05-24T22:51:34.762Z,99888.44
2023-05-24T22:54:06.891Z,99889.21
2023-05-24T22:56:35.546Z,99887.79
2023-05-24T22:59:02.854Z,99886.64
2023-05-24T23:01:31.957Z,99885.64
2023-05-24T23:04:11.524Z,99887.46
2023-05-24T23:06:50.920Z,99888.42
2023-05-24T23:09:28.258Z,99893.25
2023-05-24T23:11:57.838Z,99894.13
2023-05-24T23:14:24.800Z,99897.95
2023-05-24T23:16:51.912Z,99904.71
2023-05-24T23:19:21.701Z,99903.98
2023-05-24T23:21:51.882Z,99905.17
2023-05-24T23:24:18.578Z,99908.09
2023-05-24T23:26:45.786Z,99913.12
2023-05-24T23:29:12.749Z,99912.83
2023-05-24T23:31:40.451Z,99913.48
2023-05-24T23:34:07.901Z,99914.37
2023-05-24T23:36:36.172Z,99913.67
2023-05-24T23:39:03.405Z,99910.45
2023-05-24T23:41:30.921Z,99912.08
2023-05-24T23:43:58.129Z,99915.82
2023-05-24T23:46:25.097Z,99917.30
2023-05-24T23:48:51.799Z,99915.64
2023-05-24T23:51:19.923Z,99919.30
2023-05-24T23:53:46.897Z,99916.85
2023-05-24T23:56:19.207Z,99915.50
2023-05-24T23:58:46.365Z,99924.17
